Wednesday, October 01, 2014
06:04 UTC
  |  Log In   |  Register Free
Airport Search:

Foothills Regional Airport
(KMRN)

Foothills Regional Airport Diagram
No Airport Diagram Available

FAA data valid effective September 18, 2014 - November 13, 2014 (unless otherwise noted).

 
 
 
 
 
 
 
 
 
 
 
 
 
 

Current Aviation Weather for Foothills Regional Airport (KMRN)

The most recent METAR observation for KMRN was updated at: 0519
METAR Summary (Translated METAR)
KMRN
010455Z AUTO 00000KT 5SM BR CLR 15/15 A3000 RMK AO2 T01480148
KHKY
010453Z AUTO 31005KT 10SM CLR 18/16 A2995 RMK AO2 SLP121 T01780161 402780161
(11.8 nm SE from KMRN)
KFQD
010455Z AUTO 00000KT 7SM CLR 16/16 A2996 RMK AO2 T01590155
(28.3 nm SW from KMRN)
TAF Summary (Translated TAF)
KHKY
(11.8 nm SE from KMRN)
301720Z 3018/0118 28003KT P6SM SKC FM302100 21003KT P6SM FEW040 FM010900 00000KT 2SM BR FEW040 FM011300 18003KT P6SM FEW040
  Airport Weather Conditions for KMRN

 Current Weather at MRN
59° F
Fog/Mist
North winds at 0.0 mph
MRN NOAA Radar

Pressure: 30.00 in
Humidity: 100%
Wind: Calm
Dew Point: 58.6°F
Visibility: 5.00 mi


Airport Weather Forecast for KMRN

Translated METAR and TAF for KMRN
Translated METAR for KMRN (0558 UTC 01 October 2014)
found at http://aviationweather.gov/adds/metars/
 
METAR text: KMRN 010535Z AUTO 00000KT 2 1/2SM BR CLR 13/13 A3001 RMK AO2 T01300130
Conditions at: KMRN (MORGANTON/LENOIR, NC, US) observed 0535 UTC 01 October 2014
Temperature: 13.0°C (55°F)
Dewpoint: 13.0°C (55°F) [RH = 100%]
Pressure (altimeter): 30.01 inches Hg (1016.3 mb)
Winds: calm
Visibility: 2.50 miles (4.02 km)
Ceiling: at least 12,000 feet AGL
Clouds: sky clear below 12,000 feet AGL
Weather: BR  (mist)
Translated TAF for KMRN

There is no translated TAF available for this airport

Find All Airport Services Find A Hotel Find A Rental Car Find A Golf Course Find A Restaurant $100 Hamburger



FBO's on the Field
FBO Company Facility Photos Services Transportation Aviation Fuel Prices: Prices include tax
Catering Weather Repair Courtesy Rental Type 100LL JetA JetA+ MOGAS 8087
 
Foothills Aviation

This FBO has not yet been rated
FS:Shell
Last Updated: Aug-28
Login to update fuel prices
SS:
Contact Foothills AviationMore FBO Information
 
Add another FBO Facility Photos Catering Weather Repair Courtesy Rental Type 100LL JetA JetA+ MOGAS 8087
Services Transportation Aviation Fuel Prices: Prices include tax


model-print
model-print
model-print
model-print